sensor_id;sensor_type;location;lat;lon;timestamp;temperature;humidity
1602;DHT22;794;48.592;9.634;2024-02-26T00:00:12;5.90;1.00
1602;DHT22;794;48.592;9.634;2024-02-26T00:02:39;6.00;1.00
1602;DHT22;794;48.592;9.634;2024-02-26T00:05:07;5.90;1.00
1602;DHT22;794;48.592;9.634;2024-02-26T00:07:35;5.80;1.00
1602;DHT22;794;48.592;9.634;2024-02-26T00:10:02;5.60;1.00
1602;DHT22;794;48.592;9.634;2024-02-26T00:12:31;5.70;1.00
1602;DHT22;794;48.592;9.634;2024-02-26T00:14:57;5.80;1.00
1602;DHT22;794;48.592;9.634;2024-02-26T00:19:51;5.90;1.00
1602;DHT22;794;48.592;9.634;2024-02-26T00:22:18;5.90;1.00
1602;DHT22;794;48.592;9.634;2024-02-26T00:29:41;5.80;1.00
1602;DHT22;794;48.592;9.634;2024-02-26T00:32:08;6.00;1.00
1602;DHT22;794;48.592;9.634;2024-02-26T00:37:02;6.00;1.00
1602;DHT22;794;48.592;9.634;2024-02-26T00:39:29;6.00;1.00
1602;DHT22;794;48.592;9.634;2024-02-26T00:41:56;5.90;1.00
1602;DHT22;794;48.592;9.634;2024-02-26T00:44:23;5.40;1.00
1602;DHT22;794;48.592;9.634;2024-02-26T00:46:51;6.00;1.00
1602;DHT22;794;48.592;9.634;2024-02-26T00:51:45;5.90;1.00
1602;DHT22;794;48.592;9.634;2024-02-26T00:54:12;6.10;1.00
1602;DHT22;794;48.592;9.634;2024-02-26T00:56:39;6.20;1.00
1602;DHT22;794;48.592;9.634;2024-02-26T00:59:06;5.90;1.00
1602;DHT22;794;48.592;9.634;2024-02-26T01:01:33;5.80;1.00
1602;DHT22;794;48.592;9.634;2024-02-26T01:04:01;6.20;1.00
1602;DHT22;794;48.592;9.634;2024-02-26T01:06:29;6.10;1.00
1602;DHT22;794;48.592;9.634;2024-02-26T01:08:55;5.90;1.00
1602;DHT22;794;48.592;9.634;2024-02-26T01:11:22;6.00;1.00
1602;DHT22;794;48.592;9.634;2024-02-26T01:13:50;5.70;1.00
1602;DHT22;794;48.592;9.634;2024-02-26T01:16:21;5.90;1.00
1602;DHT22;794;48.592;9.634;2024-02-26T01:18:48;6.00;1.00
1602;DHT22;794;48.592;9.634;2024-02-26T01:21:17;6.20;1.00
1602;DHT22;794;48.592;9.634;2024-02-26T01:26:11;6.00;1.00
1602;DHT22;794;48.592;9.634;2024-02-26T01:28:37;5.90;1.00
1602;DHT22;794;48.592;9.634;2024-02-26T01:33:34;6.00;1.00
1602;DHT22;794;48.592;9.634;2024-02-26T01:36:01;6.20;1.00
1602;DHT22;794;48.592;9.634;2024-02-26T01:38:29;6.30;1.00
1602;DHT22;794;48.592;9.634;2024-02-26T01:40:56;6.00;1.00
1602;DHT22;794;48.592;9.634;2024-02-26T01:43:23;6.20;1.00
1602;DHT22;794;48.592;9.634;2024-02-26T01:45:50;5.90;1.00
1602;DHT22;794;48.592;9.634;2024-02-26T01:48:16;6.00;1.00
1602;DHT22;794;48.592;9.634;2024-02-26T01:53:11;6.10;1.00
1602;DHT22;794;48.592;9.634;2024-02-26T01:55:40;5.90;1.00
1602;DHT22;794;48.592;9.634;2024-02-26T01:58:07;6.20;1.00
1602;DHT22;794;48.592;9.634;2024-02-26T02:00:34;6.00;1.00
1602;DHT22;794;48.592;9.634;2024-02-26T02:05:29;5.80;1.00
1602;DHT22;794;48.592;9.634;2024-02-26T02:07:56;6.00;1.00
1602;DHT22;794;48.592;9.634;2024-02-26T02:10:25;5.90;1.00
1602;DHT22;794;48.592;9.634;2024-02-26T02:12:54;6.10;1.00
1602;DHT22;794;48.592;9.634;2024-02-26T02:15:21;6.20;1.00
1602;DHT22;794;48.592;9.634;2024-02-26T02:17:48;6.20;1.00
1602;DHT22;794;48.592;9.634;2024-02-26T02:20:16;6.10;1.00
1602;DHT22;794;48.592;9.634;2024-02-26T02:22:45;6.00;1.00
1602;DHT22;794;48.592;9.634;2024-02-26T02:25:12;6.10;1.00
1602;DHT22;794;48.592;9.634;2024-02-26T02:27:40;6.10;1.00
1602;DHT22;794;48.592;9.634;2024-02-26T02:30:08;6.10;1.00
1602;DHT22;794;48.592;9.634;2024-02-26T02:32:37;6.20;1.00
1602;DHT22;794;48.592;9.634;2024-02-26T02:35:06;6.10;1.00
1602;DHT22;794;48.592;9.634;2024-02-26T02:37:34;5.90;1.00
1602;DHT22;794;48.592;9.634;2024-02-26T02:40:02;6.10;1.00
1602;DHT22;794;48.592;9.634;2024-02-26T02:42:30;6.30;1.00
1602;DHT22;794;48.592;9.634;2024-02-26T02:44:57;6.10;1.00
1602;DHT22;794;48.592;9.634;2024-02-26T02:47:24;5.90;1.00
1602;DHT22;794;48.592;9.634;2024-02-26T02:49:51;6.30;1.00
1602;DHT22;794;48.592;9.634;2024-02-26T02:52:18;6.10;1.00
1602;DHT22;794;48.592;9.634;2024-02-26T02:54:45;6.10;1.00
1602;DHT22;794;48.592;9.634;2024-02-26T02:57:13;6.90;1.00
1602;DHT22;794;48.592;9.634;2024-02-26T02:59:40;6.00;1.00
1602;DHT22;794;48.592;9.634;2024-02-26T03:02:07;5.80;1.00
1602;DHT22;794;48.592;9.634;2024-02-26T03:04:34;6.20;1.00
1602;DHT22;794;48.592;9.634;2024-02-26T03:07:01;6.30;1.00
1602;DHT22;794;48.592;9.634;2024-02-26T03:09:28;6.10;1.00
1602;DHT22;794;48.592;9.634;2024-02-26T03:11:55;6.50;1.00
1602;DHT22;794;48.592;9.634;2024-02-26T03:14:23;6.10;1.00
1602;DHT22;794;48.592;9.634;2024-02-26T03:16:54;6.10;1.00
1602;DHT22;794;48.592;9.634;2024-02-26T03:19:21;5.90;1.00
1602;DHT22;794;48.592;9.634;2024-02-26T03:21:48;4.20;1.00
1602;DHT22;794;48.592;9.634;2024-02-26T03:24:14;6.90;1.00
1602;DHT22;794;48.592;9.634;2024-02-26T03:26:41;6.10;1.00
1602;DHT22;794;48.592;9.634;2024-02-26T03:29:08;5.90;1.00
1602;DHT22;794;48.592;9.634;2024-02-26T03:31:37;6.10;1.00
1602;DHT22;794;48.592;9.634;2024-02-26T03:36:31;5.90;1.00
1602;DHT22;794;48.592;9.634;2024-02-26T03:38:58;5.80;1.00
1602;DHT22;794;48.592;9.634;2024-02-26T03:43:53;6.20;1.00
1602;DHT22;794;48.592;9.634;2024-02-26T03:48:48;6.10;1.00
1602;DHT22;794;48.592;9.634;2024-02-26T03:51:15;6.00;1.00
1602;DHT22;794;48.592;9.634;2024-02-26T03:56:11;6.20;1.00
1602;DHT22;794;48.592;9.634;2024-02-26T03:58:38;6.10;1.00
1602;DHT22;794;48.592;9.634;2024-02-26T04:01:07;6.10;1.00
1602;DHT22;794;48.592;9.634;2024-02-26T04:03:34;6.20;1.00
1602;DHT22;794;48.592;9.634;2024-02-26T04:06:03;6.20;1.00
1602;DHT22;794;48.592;9.634;2024-02-26T04:08:30;6.30;1.00
1602;DHT22;794;48.592;9.634;2024-02-26T04:10:57;6.30;1.00
1602;DHT22;794;48.592;9.634;2024-02-26T04:13:24;6.00;1.00
1602;DHT22;794;48.592;9.634;2024-02-26T04:15:51;5.80;1.00
1602;DHT22;794;48.592;9.634;2024-02-26T04:18:18;5.70;1.00
1602;DHT22;794;48.592;9.634;2024-02-26T04:23:13;5.70;1.00
1602;DHT22;794;48.592;9.634;2024-02-26T04:28:07;5.70;1.00
1602;DHT22;794;48.592;9.634;2024-02-26T04:30:35;5.70;1.00
1602;DHT22;794;48.592;9.634;2024-02-26T04:33:02;5.80;1.00
1602;DHT22;794;48.592;9.634;2024-02-26T04:35:29;5.80;1.00
1602;DHT22;794;48.592;9.634;2024-02-26T04:37:56;5.80;1.00
1602;DHT22;794;48.592;9.634;2024-02-26T04:40:24;5.90;1.00
1602;DHT22;794;48.592;9.634;2024-02-26T04:42:51;5.80;1.00
1602;DHT22;794;48.592;9.634;2024-02-26T04:45:18;5.90;1.00
1602;DHT22;794;48.592;9.634;2024-02-26T04:47:46;6.10;1.00
1602;DHT22;794;48.592;9.634;2024-02-26T04:50:13;5.90;1.00
1602;DHT22;794;48.592;9.634;2024-02-26T04:52:40;6.00;1.00
1602;DHT22;794;48.592;9.634;2024-02-26T04:55:08;5.70;1.00
1602;DHT22;794;48.592;9.634;2024-02-26T04:57:36;5.90;1.00
1602;DHT22;794;48.592;9.634;2024-02-26T05:00:03;5.90;1.00
1602;DHT22;794;48.592;9.634;2024-02-26T05:02:30;5.80;1.00
1602;DHT22;794;48.592;9.634;2024-02-26T05:07:26;5.80;1.00
1602;DHT22;794;48.592;9.634;2024-02-26T05:14:55;6.00;1.00
1602;DHT22;794;48.592;9.634;2024-02-26T05:19:50;5.80;1.00
1602;DHT22;794;48.592;9.634;2024-02-26T05:22:31;5.80;1.00
1602;DHT22;794;48.592;9.634;2024-02-26T05:25:15;6.20;1.00
1602;DHT22;794;48.592;9.634;2024-02-26T05:27:43;6.10;1.00
1602;DHT22;794;48.592;9.634;2024-02-26T05:30:12;5.90;1.00
1602;DHT22;794;48.592;9.634;2024-02-26T05:32:44;7.80;1.00
1602;DHT22;794;48.592;9.634;2024-02-26T05:37:38;5.80;1.00
1602;DHT22;794;48.592;9.634;2024-02-26T05:40:06;6.40;1.00
1602;DHT22;794;48.592;9.634;2024-02-26T05:47:36;6.20;1.00
1602;DHT22;794;48.592;9.634;2024-02-26T05:50:33;5.90;1.00
1602;DHT22;794;48.592;9.634;2024-02-26T05:53:39;8.80;1.00
1602;DHT22;794;48.592;9.634;2024-02-26T05:58:33;6.20;1.00
1602;DHT22;794;48.592;9.634;2024-02-26T06:03:31;6.10;1.00
1602;DHT22;794;48.592;9.634;2024-02-26T06:05:59;5.90;1.00
1602;DHT22;794;48.592;9.634;2024-02-26T06:08:27;6.00;1.00
1602;DHT22;794;48.592;9.634;2024-02-26T06:10:54;5.80;1.00
1602;DHT22;794;48.592;9.634;2024-02-26T06:18:15;5.80;1.00
1602;DHT22;794;48.592;9.634;2024-02-26T06:20:44;6.00;1.00
1602;DHT22;794;48.592;9.634;2024-02-26T06:23:12;6.70;1.00
1602;DHT22;794;48.592;9.634;2024-02-26T06:28:07;5.70;1.00
1602;DHT22;794;48.592;9.634;2024-02-26T06:35:29;5.40;1.00
1602;DHT22;794;48.592;9.634;2024-02-26T06:37:57;5.70;1.00
1602;DHT22;794;48.592;9.634;2024-02-26T06:45:19;7.30;1.00
1602;DHT22;794;48.592;9.634;2024-02-26T06:52:40;5.80;1.00
1602;DHT22;794;48.592;9.634;2024-02-26T06:55:09;5.90;1.00
1602;DHT22;794;48.592;9.634;2024-02-26T06:57:35;5.90;1.00
1602;DHT22;794;48.592;9.634;2024-02-26T07:00:03;6.00;1.00
1602;DHT22;794;48.592;9.634;2024-02-26T07:02:56;6.40;1.00
1602;DHT22;794;48.592;9.634;2024-02-26T07:11:27;6.10;1.00
1602;DHT22;794;48.592;9.634;2024-02-26T07:21:15;6.10;1.00
1602;DHT22;794;48.592;9.634;2024-02-26T07:23:42;6.30;1.00
1602;DHT22;794;48.592;9.634;2024-02-26T07:28:38;6.50;1.00
1602;DHT22;794;48.592;9.634;2024-02-26T07:31:05;6.40;1.00
1602;DHT22;794;48.592;9.634;2024-02-26T07:45:51;8.00;1.00
1602;DHT22;794;48.592;9.634;2024-02-26T08:03:02;8.10;1.00
1602;DHT22;794;48.592;9.634;2024-02-26T08:07:56;8.30;1.00
1602;DHT22;794;48.592;9.634;2024-02-26T08:17:46;8.00;1.00
1602;DHT22;794;48.592;9.634;2024-02-26T08:20:15;7.90;1.00
1602;DHT22;794;48.592;9.634;2024-02-26T08:25:10;8.20;1.00
1602;DHT22;794;48.592;9.634;2024-02-26T08:30:04;8.50;1.00
1602;DHT22;794;48.592;9.634;2024-02-26T08:37:27;8.50;1.00
1602;DHT22;794;48.592;9.634;2024-02-26T08:49:44;9.70;1.00
1602;DHT22;794;48.592;9.634;2024-02-26T08:54:40;9.70;1.00
1602;DHT22;794;48.592;9.634;2024-02-26T09:11:53;10.20;1.00
1602;DHT22;794;48.592;9.634;2024-02-26T09:29:06;10.30;1.00
1602;DHT22;794;48.592;9.634;2024-02-26T09:43:52;10.90;1.00
1602;DHT22;794;48.592;9.634;2024-02-26T09:46:22;11.40;1.00
1602;DHT22;794;48.592;9.634;2024-02-26T09:58:39;12.20;1.00
1602;DHT22;794;48.592;9.634;2024-02-26T10:01:13;12.10;1.00
1602;DHT22;794;48.592;9.634;2024-02-26T10:03:42;12.20;1.00
1602;DHT22;794;48.592;9.634;2024-02-26T10:18:46;12.80;1.00
1602;DHT22;794;48.592;9.634;2024-02-26T10:21:16;13.10;1.00
1602;DHT22;794;48.592;9.634;2024-02-26T10:26:12;14.50;1.00
1602;DHT22;794;48.592;9.634;2024-02-26T10:36:04;16.40;1.00
1602;DHT22;794;48.592;9.634;2024-02-26T10:38:32;16.20;1.00
1602;DHT22;794;48.592;9.634;2024-02-26T10:45:55;15.60;1.00
1602;DHT22;794;48.592;9.634;2024-02-26T10:48:27;15.80;1.00
1602;DHT22;794;48.592;9.634;2024-02-26T10:50:54;15.80;1.00
1602;DHT22;794;48.592;9.634;2024-02-26T10:53:25;15.70;1.00
1602;DHT22;794;48.592;9.634;2024-02-26T10:55:58;15.10;1.00
1602;DHT22;794;48.592;9.634;2024-02-26T10:58:28;14.60;1.00
1602;DHT22;794;48.592;9.634;2024-02-26T11:00:57;14.50;1.00
1602;DHT22;794;48.592;9.634;2024-02-26T11:03:25;14.50;1.00
1602;DHT22;794;48.592;9.634;2024-02-26T11:05:52;13.90;1.00
1602;DHT22;794;48.592;9.634;2024-02-26T11:08:19;14.30;1.00
1602;DHT22;794;48.592;9.634;2024-02-26T11:10:52;14.40;1.00
1602;DHT22;794;48.592;9.634;2024-02-26T11:13:21;13.90;1.00
1602;DHT22;794;48.592;9.634;2024-02-26T11:15:51;14.50;1.00
1602;DHT22;794;48.592;9.634;2024-02-26T11:18:21;14.70;1.00
1602;DHT22;794;48.592;9.634;2024-02-26T11:28:15;14.20;1.00
1602;DHT22;794;48.592;9.634;2024-02-26T11:30:46;14.80;1.00
1602;DHT22;794;48.592;9.634;2024-02-26T11:33:15;14.50;1.00
1602;DHT22;794;48.592;9.634;2024-02-26T11:38:17;14.30;1.00
1602;DHT22;794;48.592;9.634;2024-02-26T11:40:46;13.40;1.00
1602;DHT22;794;48.592;9.634;2024-02-26T11:43:15;13.30;1.00
1602;DHT22;794;48.592;9.634;2024-02-26T11:45:50;13.30;1.00
1602;DHT22;794;48.592;9.634;2024-02-26T11:48:22;13.20;1.00
1602;DHT22;794;48.592;9.634;2024-02-26T11:50:50;13.40;1.00
1602;DHT22;794;48.592;9.634;2024-02-26T11:53:21;12.90;1.00
1602;DHT22;794;48.592;9.634;2024-02-26T11:56:13;12.90;1.00
1602;DHT22;794;48.592;9.634;2024-02-26T11:58:48;13.30;1.00
1602;DHT22;794;48.592;9.634;2024-02-26T12:01:38;13.40;1.00
1602;DHT22;794;48.592;9.634;2024-02-26T12:04:06;13.70;1.00
1602;DHT22;794;48.592;9.634;2024-02-26T12:06:41;13.60;1.00
1602;DHT22;794;48.592;9.634;2024-02-26T12:09:08;13.50;1.00
1602;DHT22;794;48.592;9.634;2024-02-26T12:11:38;13.80;1.00
1602;DHT22;794;48.592;9.634;2024-02-26T12:14:08;13.50;1.00
1602;DHT22;794;48.592;9.634;2024-02-26T12:16:36;12.90;1.00
1602;DHT22;794;48.592;9.634;2024-02-26T12:19:04;13.20;1.00
1602;DHT22;794;48.592;9.634;2024-02-26T12:21:34;12.80;1.00
1602;DHT22;794;48.592;9.634;2024-02-26T12:24:11;12.80;1.00
1602;DHT22;794;48.592;9.634;2024-02-26T12:26:39;12.80;1.00
1602;DHT22;794;48.592;9.634;2024-02-26T12:29:08;12.40;1.00
1602;DHT22;794;48.592;9.634;2024-02-26T12:31:35;12.50;1.00
1602;DHT22;794;48.592;9.634;2024-02-26T12:34:04;12.30;1.00
1602;DHT22;794;48.592;9.634;2024-02-26T12:36:31;12.20;1.00
1602;DHT22;794;48.592;9.634;2024-02-26T12:39:00;12.70;1.00
1602;DHT22;794;48.592;9.634;2024-02-26T12:41:27;12.90;1.00
1602;DHT22;794;48.592;9.634;2024-02-26T12:43:56;12.90;1.00
1602;DHT22;794;48.592;9.634;2024-02-26T12:46:25;13.20;1.00
1602;DHT22;794;48.592;9.634;2024-02-26T12:48:54;13.20;1.00
1602;DHT22;794;48.592;9.634;2024-02-26T12:51:23;13.80;1.00
1602;DHT22;794;48.592;9.634;2024-02-26T12:53:51;13.70;1.00
1602;DHT22;794;48.592;9.634;2024-02-26T13:01:15;12.80;1.00
1602;DHT22;794;48.592;9.634;2024-02-26T13:03:44;12.60;1.00
1602;DHT22;794;48.592;9.634;2024-02-26T13:06:11;12.40;1.00
1602;DHT22;794;48.592;9.634;2024-02-26T13:08:38;12.70;1.00
1602;DHT22;794;48.592;9.634;2024-02-26T13:13:33;12.40;1.00
1602;DHT22;794;48.592;9.634;2024-02-26T13:16:04;13.00;1.00
1602;DHT22;794;48.592;9.634;2024-02-26T13:18:32;12.40;1.00
1602;DHT22;794;48.592;9.634;2024-02-26T13:21:11;12.50;1.00
1602;DHT22;794;48.592;9.634;2024-02-26T13:26:06;12.30;1.00
1602;DHT22;794;48.592;9.634;2024-02-26T13:28:34;12.80;1.00
1602;DHT22;794;48.592;9.634;2024-02-26T13:31:01;12.50;1.00
1602;DHT22;794;48.592;9.634;2024-02-26T13:33:30;12.20;1.00
1602;DHT22;794;48.592;9.634;2024-02-26T13:35:58;12.00;1.00
1602;DHT22;794;48.592;9.634;2024-02-26T13:38:27;11.90;1.00
1602;DHT22;794;48.592;9.634;2024-02-26T13:40:55;12.30;1.00
1602;DHT22;794;48.592;9.634;2024-02-26T13:43:22;12.00;1.00
1602;DHT22;794;48.592;9.634;2024-02-26T13:50:43;12.00;1.00
1602;DHT22;794;48.592;9.634;2024-02-26T13:53:12;12.10;1.00
1602;DHT22;794;48.592;9.634;2024-02-26T13:55:41;12.00;1.00
1602;DHT22;794;48.592;9.634;2024-02-26T13:58:11;12.10;1.00
1602;DHT22;794;48.592;9.634;2024-02-26T14:05:34;11.70;1.00
1602;DHT22;794;48.592;9.634;2024-02-26T14:08:02;11.90;1.00
1602;DHT22;794;48.592;9.634;2024-02-26T14:12:59;12.10;1.00
1602;DHT22;794;48.592;9.634;2024-02-26T14:15:26;12.30;1.00
1602;DHT22;794;48.592;9.634;2024-02-26T14:17:54;12.50;1.00
1602;DHT22;794;48.592;9.634;2024-02-26T14:20:22;12.20;1.00
1602;DHT22;794;48.592;9.634;2024-02-26T14:22:49;12.30;1.00
1602;DHT22;794;48.592;9.634;2024-02-26T14:25:17;11.90;1.00
1602;DHT22;794;48.592;9.634;2024-02-26T14:27:43;11.90;1.00
1602;DHT22;794;48.592;9.634;2024-02-26T14:30:12;11.70;1.00
1602;DHT22;794;48.592;9.634;2024-02-26T14:32:40;11.60;1.00
1602;DHT22;794;48.592;9.634;2024-02-26T14:35:08;9.70;1.00
1602;DHT22;794;48.592;9.634;2024-02-26T14:37:35;11.80;1.00
1602;DHT22;794;48.592;9.634;2024-02-26T14:40:09;11.50;1.00
1602;DHT22;794;48.592;9.634;2024-02-26T14:42:36;11.80;1.00
1602;DHT22;794;48.592;9.634;2024-02-26T14:45:03;11.80;1.00
1602;DHT22;794;48.592;9.634;2024-02-26T14:47:34;11.80;1.00
1602;DHT22;794;48.592;9.634;2024-02-26T14:50:01;11.70;1.00
1602;DHT22;794;48.592;9.634;2024-02-26T14:54:55;11.70;1.00
1602;DHT22;794;48.592;9.634;2024-02-26T15:02:17;11.30;1.00
1602;DHT22;794;48.592;9.634;2024-02-26T15:04:46;11.60;1.00
1602;DHT22;794;48.592;9.634;2024-02-26T15:07:13;11.50;1.00
1602;DHT22;794;48.592;9.634;2024-02-26T15:09:40;11.20;1.00
1602;DHT22;794;48.592;9.634;2024-02-26T15:14:35;11.20;1.00
1602;DHT22;794;48.592;9.634;2024-02-26T15:17:03;10.90;1.00
1602;DHT22;794;48.592;9.634;2024-02-26T15:21:59;11.30;1.00
1602;DHT22;794;48.592;9.634;2024-02-26T15:26:53;11.00;1.00
1602;DHT22;794;48.592;9.634;2024-02-26T15:36:41;10.70;1.00
1602;DHT22;794;48.592;9.634;2024-02-26T15:39:10;11.00;1.00
1602;DHT22;794;48.592;9.634;2024-02-26T15:41:36;10.70;1.00
1602;DHT22;794;48.592;9.634;2024-02-26T15:48:58;10.60;1.00
1602;DHT22;794;48.592;9.634;2024-02-26T15:51:25;10.80;1.00
1602;DHT22;794;48.592;9.634;2024-02-26T15:53:52;10.70;1.00
1602;DHT22;794;48.592;9.634;2024-02-26T15:56:22;10.60;1.00
1602;DHT22;794;48.592;9.634;2024-02-26T15:58:53;11.00;1.00
1602;DHT22;794;48.592;9.634;2024-02-26T16:01:50;10.40;1.00
1602;DHT22;794;48.592;9.634;2024-02-26T16:04:17;10.50;1.00
1602;DHT22;794;48.592;9.634;2024-02-26T16:06:46;10.30;1.00
1602;DHT22;794;48.592;9.634;2024-02-26T16:11:43;10.30;1.00
1602;DHT22;794;48.592;9.634;2024-02-26T16:14:40;10.30;1.00
1602;DHT22;794;48.592;9.634;2024-02-26T16:17:14;10.40;1.00
1602;DHT22;794;48.592;9.634;2024-02-26T16:27:08;10.30;1.00
1602;DHT22;794;48.592;9.634;2024-02-26T16:39:25;9.90;1.00
1602;DHT22;794;48.592;9.634;2024-02-26T16:44:20;10.10;1.00
1602;DHT22;794;48.592;9.634;2024-02-26T16:54:09;9.70;1.00
1602;DHT22;794;48.592;9.634;2024-02-26T16:59:03;9.50;1.00
1602;DHT22;794;48.592;9.634;2024-02-26T17:01:32;9.50;1.00
1602;DHT22;794;48.592;9.634;2024-02-26T17:03:59;9.10;1.00
1602;DHT22;794;48.592;9.634;2024-02-26T17:06:26;9.20;1.00
1602;DHT22;794;48.592;9.634;2024-02-26T17:08:53;9.10;1.00
1602;DHT22;794;48.592;9.634;2024-02-26T17:11:20;9.00;1.00
1602;DHT22;794;48.592;9.634;2024-02-26T17:13:49;9.20;1.00
1602;DHT22;794;48.592;9.634;2024-02-26T17:18:44;9.00;1.00
1602;DHT22;794;48.592;9.634;2024-02-26T17:21:16;9.10;1.00
1602;DHT22;794;48.592;9.634;2024-02-26T17:26:16;9.00;1.00
1602;DHT22;794;48.592;9.634;2024-02-26T17:28:43;9.10;1.00
1602;DHT22;794;48.592;9.634;2024-02-26T17:31:11;9.40;1.00
1602;DHT22;794;48.592;9.634;2024-02-26T17:33:38;9.30;1.00
1602;DHT22;794;48.592;9.634;2024-02-26T17:36:07;9.20;1.00
1602;DHT22;794;48.592;9.634;2024-02-26T17:38:34;9.10;1.00
1602;DHT22;794;48.592;9.634;2024-02-26T17:41:26;9.00;1.00
1602;DHT22;794;48.592;9.634;2024-02-26T17:49:02;9.10;1.00
1602;DHT22;794;48.592;9.634;2024-02-26T17:51:30;8.90;1.00
1602;DHT22;794;48.592;9.634;2024-02-26T17:53:57;9.10;1.00
1602;DHT22;794;48.592;9.634;2024-02-26T17:56:24;9.20;1.00
1602;DHT22;794;48.592;9.634;2024-02-26T17:58:50;9.10;1.00
1602;DHT22;794;48.592;9.634;2024-02-26T18:01:17;9.10;1.00
1602;DHT22;794;48.592;9.634;2024-02-26T18:06:12;9.10;1.00
1602;DHT22;794;48.592;9.634;2024-02-26T18:08:41;8.90;1.00
1602;DHT22;794;48.592;9.634;2024-02-26T18:11:08;9.10;1.00
1602;DHT22;794;48.592;9.634;2024-02-26T18:13:35;8.90;1.00
1602;DHT22;794;48.592;9.634;2024-02-26T18:16:05;9.20;1.00
1602;DHT22;794;48.592;9.634;2024-02-26T18:25:56;9.00;1.00
1602;DHT22;794;48.592;9.634;2024-02-26T18:30:50;8.90;1.00
1602;DHT22;794;48.592;9.634;2024-02-26T18:33:17;9.00;1.00
1602;DHT22;794;48.592;9.634;2024-02-26T18:38:12;8.90;1.00
1602;DHT22;794;48.592;9.634;2024-02-26T18:40:39;9.00;1.00
1602;DHT22;794;48.592;9.634;2024-02-26T18:43:07;8.80;1.00
1602;DHT22;794;48.592;9.634;2024-02-26T18:45:37;8.90;1.00
1602;DHT22;794;48.592;9.634;2024-02-26T18:48:06;9.00;1.00
1602;DHT22;794;48.592;9.634;2024-02-26T18:50:34;9.10;1.00
1602;DHT22;794;48.592;9.634;2024-02-26T18:55:28;9.10;1.00
1602;DHT22;794;48.592;9.634;2024-02-26T18:57:55;8.90;1.00
1602;DHT22;794;48.592;9.634;2024-02-26T19:00:23;9.20;1.00
1602;DHT22;794;48.592;9.634;2024-02-26T19:02:50;9.00;1.00
1602;DHT22;794;48.592;9.634;2024-02-26T19:05:17;9.10;1.00
1602;DHT22;794;48.592;9.634;2024-02-26T19:07:50;9.10;1.00
1602;DHT22;794;48.592;9.634;2024-02-26T19:12:51;9.00;1.00
1602;DHT22;794;48.592;9.634;2024-02-26T19:15:17;8.60;1.00
1602;DHT22;794;48.592;9.634;2024-02-26T19:17:47;8.90;1.00
1602;DHT22;794;48.592;9.634;2024-02-26T19:22:46;9.00;1.00
1602;DHT22;794;48.592;9.634;2024-02-26T19:27:43;8.70;1.00
1602;DHT22;794;48.592;9.634;2024-02-26T19:30:11;8.90;1.00
1602;DHT22;794;48.592;9.634;2024-02-26T19:35:07;8.60;1.00
1602;DHT22;794;48.592;9.634;2024-02-26T19:37:35;9.00;1.00
1602;DHT22;794;48.592;9.634;2024-02-26T19:40:03;8.80;1.00
1602;DHT22;794;48.592;9.634;2024-02-26T19:42:30;8.50;1.00
1602;DHT22;794;48.592;9.634;2024-02-26T19:44:57;8.70;1.00
1602;DHT22;794;48.592;9.634;2024-02-26T19:52:19;8.40;1.00
1602;DHT22;794;48.592;9.634;2024-02-26T20:07:02;8.60;1.00
1602;DHT22;794;48.592;9.634;2024-02-26T20:09:31;8.80;1.00
1602;DHT22;794;48.592;9.634;2024-02-26T20:19:21;8.30;1.00
1602;DHT22;794;48.592;9.634;2024-02-26T20:21:48;8.20;1.00
1602;DHT22;794;48.592;9.634;2024-02-26T20:24:15;8.20;1.00
1602;DHT22;794;48.592;9.634;2024-02-26T20:26:44;8.20;1.00
1602;DHT22;794;48.592;9.634;2024-02-26T20:29:14;9.40;1.00
1602;DHT22;794;48.592;9.634;2024-02-26T20:31:41;7.90;1.00
1602;DHT22;794;48.592;9.634;2024-02-26T20:34:08;8.00;1.00
1602;DHT22;794;48.592;9.634;2024-02-26T20:39:04;8.00;1.00
1602;DHT22;794;48.592;9.634;2024-02-26T20:44:02;7.90;1.00
1602;DHT22;794;48.592;9.634;2024-02-26T20:48:56;8.00;1.00
1602;DHT22;794;48.592;9.634;2024-02-26T20:53:51;8.20;1.00
1602;DHT22;794;48.592;9.634;2024-02-26T20:58:46;8.20;1.00
1602;DHT22;794;48.592;9.634;2024-02-26T21:01:14;8.10;1.00
1602;DHT22;794;48.592;9.634;2024-02-26T21:08:36;8.10;1.00
1602;DHT22;794;48.592;9.634;2024-02-26T21:11:04;8.30;1.00
1602;DHT22;794;48.592;9.634;2024-02-26T21:18:27;8.20;1.00
1602;DHT22;794;48.592;9.634;2024-02-26T21:20:54;8.00;1.00
1602;DHT22;794;48.592;9.634;2024-02-26T21:23:23;8.20;1.00
1602;DHT22;794;48.592;9.634;2024-02-26T21:25:50;8.20;1.00
1602;DHT22;794;48.592;9.634;2024-02-26T21:28:17;8.00;1.00
1602;DHT22;794;48.592;9.634;2024-02-26T21:30:45;7.90;1.00
1602;DHT22;794;48.592;9.634;2024-02-26T21:35:41;7.90;1.00
1602;DHT22;794;48.592;9.634;2024-02-26T21:40:35;7.90;1.00
1602;DHT22;794;48.592;9.634;2024-02-26T21:43:03;8.10;1.00
1602;DHT22;794;48.592;9.634;2024-02-26T21:50:24;8.10;1.00
1602;DHT22;794;48.592;9.634;2024-02-26T21:52:53;7.90;1.00
1602;DHT22;794;48.592;9.634;2024-02-26T21:55:19;7.80;1.00
1602;DHT22;794;48.592;9.634;2024-02-26T22:00:16;7.80;1.00
1602;DHT22;794;48.592;9.634;2024-02-26T22:07:39;7.70;1.00
1602;DHT22;794;48.592;9.634;2024-02-26T22:10:08;7.90;1.00
1602;DHT22;794;48.592;9.634;2024-02-26T22:12:36;7.90;1.00
1602;DHT22;794;48.592;9.634;2024-02-26T22:15:03;7.90;1.00
1602;DHT22;794;48.592;9.634;2024-02-26T22:17:30;8.00;1.00
1602;DHT22;794;48.592;9.634;2024-02-26T22:19:57;7.90;1.00
1602;DHT22;794;48.592;9.634;2024-02-26T22:22:27;8.00;1.00
1602;DHT22;794;48.592;9.634;2024-02-26T22:27:22;7.70;1.00
1602;DHT22;794;48.592;9.634;2024-02-26T22:29:49;7.90;1.00
1602;DHT22;794;48.592;9.634;2024-02-26T22:32:16;7.80;1.00
1602;DHT22;794;48.592;9.634;2024-02-26T22:44:37;7.50;1.00
1602;DHT22;794;48.592;9.634;2024-02-26T22:47:04;7.80;1.00
1602;DHT22;794;48.592;9.634;2024-02-26T22:54:30;7.80;1.00
1602;DHT22;794;48.592;9.634;2024-02-26T22:56:57;7.70;1.00
1602;DHT22;794;48.592;9.634;2024-02-26T22:59:24;7.70;1.00
1602;DHT22;794;48.592;9.634;2024-02-26T23:01:53;8.00;1.00
1602;DHT22;794;48.592;9.634;2024-02-26T23:04:20;7.80;1.00
1602;DHT22;794;48.592;9.634;2024-02-26T23:09:15;7.60;1.00
1602;DHT22;794;48.592;9.634;2024-02-26T23:16:38;7.20;1.00
1602;DHT22;794;48.592;9.634;2024-02-26T23:19:06;7.30;1.00
1602;DHT22;794;48.592;9.634;2024-02-26T23:26:27;7.10;1.00
1602;DHT22;794;48.592;9.634;2024-02-26T23:28:54;7.40;1.00
1602;DHT22;794;48.592;9.634;2024-02-26T23:33:48;7.20;1.00
1602;DHT22;794;48.592;9.634;2024-02-26T23:36:17;7.20;1.00
1602;DHT22;794;48.592;9.634;2024-02-26T23:38:44;7.20;1.00
1602;DHT22;794;48.592;9.634;2024-02-26T23:51:02;7.10;1.00
1602;DHT22;794;48.592;9.634;2024-02-26T23:53:30;7.20;1.00
